ENKR

Kirkenes , Høybuktmoen Airport

Kirkenes, Norway
METAR ENKR 232220Z 17006KT 9999 FEW001 M23/M26 Q1040 RMK WIND 731FT 27010KT
Observed Flight Rules
Feb-23 @ 22:20 UTC (19 minutes ago) Visual Flight Rules
Wind Visibility Clouds
170° at 6 knots 10,000+ meters
  • Few at 100' AGL
Temperatures Readings
Current -23°C / -9°F
Dewpoint -26°C / -15°F
Humidity 77%
Altimeter 30.71" Hg
Pressure 1040 hPa
Elevation 91
METAR ENKR 232220Z 17006KT 9999 FEW001 M23/M26 Q1040 RMK WIND 731FT 27010KT
Observed Flight Rules
Feb-23 @ 22:20 UTC
(19 minutes ago)
VFR
Wind Visibility
170° at 6 knots 10,000+ meters
Clouds
  • Few at 100' AGL
Temperature Dewpoint
-23°C / -9°F -26°C / -15°F
Humidity Altimeter Pressure
77% 30.71" Hg 1040 hPa